Time;durP1;ratioP1;P1;durP2;ratioP2;P2;SDS_P1;SDS_P2;PMS_P1;PMS_P2;Temp;Humidity;BMP_temperature;BMP_pressure;BME280_temperature;BME280_humidity;BME280_pressure;Samples;Min_cycle;Max_cycle;Signal;HPM_P1;HPM_P2
2024/01/30 00:01:36;;;;;;;24.77;13.00;;;6.30;99.90;;;;;;5015751;28;20077;-71
2024/01/30 00:04:02;;;;;;;19.48;13.95;;;6.30;99.90;;;;;;5027223;28;20115;-71
2024/01/30 00:06:28;;;;;;;19.95;12.63;;;6.30;99.90;;;;;;5028112;28;20192;-71
2024/01/30 00:08:54;;;;;;;24.10;13.73;;;6.20;99.90;;;;;;5012889;28;20045;-71
2024/01/30 00:11:19;;;;;;;21.83;13.77;;;6.20;99.90;;;;;;5027811;28;20077;-70
2024/01/30 00:13:45;;;;;;;22.15;13.38;;;6.30;99.90;;;;;;5027910;28;20049;-71
2024/01/30 00:16:24;;;;;;;21.35;12.45;;;6.30;99.90;;;;;;5012897;28;20037;-71
2024/01/30 00:18:53;;;;;;;21.35;13.38;;;6.30;99.90;;;;;;5027398;28;20053;-71
2024/01/30 00:21:20;;;;;;;24.58;13.27;;;6.30;99.90;;;;;;5012455;28;20080;-71
2024/01/30 00:23:46;;;;;;;24.58;13.50;;;6.50;99.90;;;;;;5012853;28;20038;-71
2024/01/30 00:26:12;;;;;;;20.02;13.55;;;6.40;99.90;;;;;;5012476;28;20044;-71
2024/01/30 00:28:46;;;;;;;18.88;12.32;;;6.50;99.90;;;;;;5012211;28;20034;-71
2024/01/30 00:31:12;;;;;;;22.80;13.68;;;6.50;99.90;;;;;;5027543;28;20089;-71
2024/01/30 00:33:41;;;;;;;18.60;12.02;;;6.50;99.90;;;;;;5010667;28;20081;-71
2024/01/30 00:36:08;;;;;;;23.85;13.38;;;6.60;99.90;;;;;;5012287;28;20042;-71
2024/01/30 00:38:34;;;;;;;21.05;12.23;;;6.60;99.90;;;;;;5012456;28;20038;-71
2024/01/30 00:41:00;;;;;;;17.67;12.73;;;6.60;99.90;;;;;;5012044;28;20490;-71
2024/01/30 00:43:26;;;;;;;19.60;11.73;;;6.60;99.90;;;;;;5012114;28;20037;-71
2024/01/30 00:45:54;;;;;;;20.05;12.70;;;6.70;99.90;;;;;;5012306;28;20085;-70
2024/01/30 00:48:20;;;;;;;17.83;12.27;;;6.70;99.90;;;;;;5012002;28;20125;-71
2024/01/30 00:50:46;;;;;;;21.63;12.27;;;6.70;99.90;;;;;;5012194;28;20037;-70
2024/01/30 00:53:12;;;;;;;23.90;12.70;;;6.60;99.90;;;;;;5011947;28;20080;-71
2024/01/30 00:55:37;;;;;;;18.85;13.15;;;6.70;99.90;;;;;;5012161;28;20044;-71
2024/01/30 00:58:03;;;;;;;20.05;12.23;;;6.50;99.90;;;;;;5010430;28;20064;-71
2024/01/30 01:00:29;;;;;;;19.20;12.32;;;6.60;99.90;;;;;;5011633;28;20559;-70
2024/01/30 01:02:55;;;;;;;17.98;12.23;;;6.50;99.90;;;;;;5010436;28;20054;-71
2024/01/30 01:05:21;;;;;;;17.50;12.35;;;6.50;99.90;;;;;;5011960;28;20382;-71
2024/01/30 01:07:50;;;;;;;19.80;12.02;;;6.50;99.90;;;;;;4999180;28;20041;-71
2024/01/30 01:10:17;;;;;;;20.25;12.30;;;6.50;99.90;;;;;;5005056;28;20058;-71
2024/01/30 01:12:43;;;;;;;20.02;13.05;;;6.50;99.90;;;;;;4992166;28;20414;-71
2024/01/30 01:15:11;;;;;;;19.73;11.48;;;6.50;99.90;;;;;;4991974;28;20046;-72
2024/01/30 01:17:38;;;;;;;20.15;12.77;;;6.60;99.90;;;;;;4992245;28;20184;-71
2024/01/30 01:20:06;;;;;;;18.70;12.63;;;6.60;99.90;;;;;;4992017;28;20116;-71
2024/01/30 01:22:32;;;;;;;20.85;13.32;;;6.60;99.90;;;;;;4991456;28;20379;-71
2024/01/30 01:25:00;;;;;;;20.45;12.10;;;6.60;99.90;;;;;;4991519;28;20085;-71
2024/01/30 01:27:26;;;;;;;21.98;12.38;;;6.60;99.90;;;;;;4992214;28;20619;-70
2024/01/30 01:29:52;;;;;;;18.73;12.68;;;6.60;99.90;;;;;;4995234;28;20037;-71
2024/01/30 01:32:18;;;;;;;22.60;12.45;;;6.70;99.90;;;;;;5011744;28;20046;-71
2024/01/30 01:34:44;;;;;;;20.85;12.07;;;6.60;99.90;;;;;;5011604;28;20038;-71
2024/01/30 01:37:10;;;;;;;22.55;12.25;;;6.60;99.90;;;;;;5009939;28;20049;-71
2024/01/30 01:39:35;;;;;;;18.23;12.23;;;6.60;99.90;;;;;;5011306;28;20038;-71
2024/01/30 01:42:01;;;;;;;26.65;13.05;;;6.70;99.90;;;;;;5011142;28;20038;-71
2024/01/30 01:44:27;;;;;;;17.27;11.65;;;6.70;99.90;;;;;;5010769;28;20081;-71
2024/01/30 01:46:54;;;;;;;20.33;12.32;;;6.70;99.90;;;;;;5011228;28;20046;-71
2024/01/30 01:49:25;;;;;;;18.45;12.48;;;6.70;99.90;;;;;;5011258;28;20128;-71
2024/01/30 01:51:53;;;;;;;20.17;12.50;;;6.70;99.90;;;;;;5010893;28;20108;-71
2024/01/30 01:54:20;;;;;;;16.85;12.27;;;6.70;99.90;;;;;;5004202;28;20042;-71
2024/01/30 01:56:46;;;;;;;20.65;12.23;;;6.70;99.90;;;;;;4990061;28;20046;-71
2024/01/30 01:59:12;;;;;;;18.17;11.50;;;6.80;99.90;;;;;;5006203;28;20093;-71
2024/01/30 02:01:39;;;;;;;16.95;11.50;;;6.60;99.90;;;;;;4991038;28;20038;-71
2024/01/30 02:04:05;;;;;;;21.38;12.82;;;6.70;99.90;;;;;;4991212;28;20452;-71
2024/01/30 02:06:32;;;;;;;18.33;11.32;;;6.70;99.90;;;;;;4992279;28;20092;-70
2024/01/30 02:08:57;;;;;;;20.27;11.75;;;6.70;99.90;;;;;;5003361;28;20041;-71
2024/01/30 02:11:24;;;;;;;23.35;11.60;;;6.70;99.90;;;;;;4994656;28;20065;-71
2024/01/30 02:13:50;;;;;;;16.48;11.23;;;6.80;99.90;;;;;;4992604;28;20052;-71
2024/01/30 02:16:17;;;;;;;19.30;11.98;;;6.70;99.90;;;;;;5010871;28;20072;-71
2024/01/30 02:18:47;;;;;;;20.13;12.52;;;6.80;99.90;;;;;;5010840;28;20571;-71
2024/01/30 02:21:13;;;;;;;18.35;12.02;;;6.80;99.90;;;;;;5010815;28;20041;-71
2024/01/30 02:23:40;;;;;;;17.42;12.48;;;6.80;99.90;;;;;;5010927;28;20459;-71
2024/01/30 02:26:06;;;;;;;19.13;11.00;;;6.90;99.90;;;;;;4991853;28;20069;-71
2024/01/30 02:28:32;;;;;;;18.65;12.27;;;6.90;99.90;;;;;;4989258;28;20046;-71
2024/01/30 02:30:58;;;;;;;18.27;11.90;;;6.90;99.90;;;;;;4989649;28;20050;-71
2024/01/30 02:33:23;;;;;;;14.95;11.32;;;6.90;99.90;;;;;;4990826;28;20054;-71
2024/01/30 02:35:49;;;;;;;18.77;11.48;;;6.90;99.90;;;;;;4989747;28;20054;-71
2024/01/30 02:38:16;;;;;;;18.50;11.02;;;6.90;99.90;;;;;;4990643;28;20508;-71
2024/01/30 02:40:42;;;;;;;23.85;11.40;;;7.00;99.90;;;;;;4990723;28;20082;-71
2024/01/30 02:43:08;;;;;;;18.90;12.15;;;7.00;99.90;;;;;;4995171;28;20080;-71
2024/01/30 02:45:34;;;;;;;22.15;12.88;;;7.00;99.90;;;;;;5010314;28;20099;-71
2024/01/30 02:47:59;;;;;;;19.58;11.75;;;7.00;99.90;;;;;;5009983;28;20763;-71
2024/01/30 02:50:25;;;;;;;20.75;11.95;;;7.00;99.90;;;;;;5010111;28;20060;-71
2024/01/30 02:52:51;;;;;;;15.52;11.32;;;7.00;99.90;;;;;;5010239;28;20030;-71
2024/01/30 02:55:17;;;;;;;18.58;10.93;;;7.10;99.90;;;;;;5008951;28;20383;-71
2024/01/30 02:57:43;;;;;;;19.30;12.40;;;7.10;99.90;;;;;;5009941;28;20104;-71
2024/01/30 03:00:09;;;;;;;18.55;11.43;;;7.00;99.90;;;;;;5010004;28;20112;-71
2024/01/30 03:02:36;;;;;;;18.92;12.02;;;7.00;99.90;;;;;;5009905;28;20053;-71
2024/01/30 03:05:03;;;;;;;18.23;11.60;;;7.00;99.90;;;;;;5012108;28;20085;-71
2024/01/30 03:07:29;;;;;;;17.63;12.02;;;7.00;99.90;;;;;;4990319;28;20054;-71
2024/01/30 03:09:56;;;;;;;17.55;11.98;;;7.10;99.90;;;;;;5005161;28;20062;-71
2024/01/30 03:12:22;;;;;;;19.80;11.93;;;7.10;99.90;;;;;;4990069;28;20100;-71
2024/01/30 03:14:49;;;;;;;16.33;11.48;;;7.10;99.90;;;;;;4989209;28;20536;-71
2024/01/30 03:17:15;;;;;;;25.63;11.13;;;7.10;99.90;;;;;;4990194;28;20050;-71
2024/01/30 03:19:40;;;;;;;20.05;12.02;;;7.20;99.90;;;;;;4990322;28;20053;-70
2024/01/30 03:22:06;;;;;;;18.40;11.82;;;7.10;99.90;;;;;;4990448;28;20380;-70
2024/01/30 03:24:32;;;;;;;19.52;12.02;;;7.20;99.90;;;;;;4988854;28;20050;-71
2024/01/30 03:26:58;;;;;;;19.73;11.93;;;7.10;99.90;;;;;;4989686;28;20046;-71
2024/01/30 03:29:23;;;;;;;19.33;11.77;;;7.10;99.90;;;;;;4990354;28;20061;-71
2024/01/30 03:31:49;;;;;;;16.63;11.18;;;7.10;99.90;;;;;;4988769;28;20054;-71
2024/01/30 03:34:15;;;;;;;16.85;12.43;;;7.10;99.90;;;;;;4990094;28;20034;-71
2024/01/30 03:36:40;;;;;;;19.98;11.77;;;7.00;99.90;;;;;;4990170;28;20768;-71
2024/01/30 03:39:06;;;;;;;19.90;11.60;;;7.10;99.90;;;;;;4991009;28;20046;-71
2024/01/30 03:41:32;;;;;;;22.90;12.50;;;7.00;99.90;;;;;;4994006;28;20053;-71
2024/01/30 03:43:58;;;;;;;17.38;11.68;;;7.10;99.90;;;;;;4994066;28;20664;-71
2024/01/30 03:46:24;;;;;;;23.13;11.88;;;7.00;99.90;;;;;;4993716;28;20479;-71
2024/01/30 03:48:50;;;;;;;17.73;12.10;;;7.00;99.90;;;;;;4993658;28;20042;-71
2024/01/30 03:51:15;;;;;;;22.05;12.93;;;7.00;99.90;;;;;;4993950;28;20092;-71
2024/01/30 03:53:42;;;;;;;17.92;11.85;;;7.00;99.90;;;;;;4993834;28;20461;-71
2024/01/30 03:56:08;;;;;;;19.55;11.90;;;7.10;99.90;;;;;;4993408;28;20113;-71
2024/01/30 03:58:34;;;;;;;19.30;11.55;;;7.10;99.90;;;;;;4993526;28;20041;-71
2024/01/30 04:01:00;;;;;;;19.15;11.90;;;7.10;99.90;;;;;;4993466;28;20056;-71
2024/01/30 04:03:26;;;;;;;17.45;11.95;;;7.10;99.90;;;;;;4993407;28;20092;-71
2024/01/30 04:05:52;;;;;;;19.05;11.98;;;7.10;99.90;;;;;;4993378;28;20042;-70
2024/01/30 04:08:18;;;;;;;19.23;12.57;;;7.10;99.90;;;;;;4993132;28;20050;-71
2024/01/30 04:10:44;;;;;;;17.27;12.00;;;7.10;99.90;;;;;;4992923;28;20065;-71
2024/01/30 04:13:10;;;;;;;22.35;11.95;;;7.10;99.90;;;;;;4993261;28;20046;-71
2024/01/30 04:15:36;;;;;;;17.73;11.55;;;7.20;99.90;;;;;;5006567;28;20030;-71
2024/01/30 04:18:02;;;;;;;21.63;11.43;;;7.20;99.90;;;;;;5008752;28;20041;-71
2024/01/30 04:20:27;;;;;;;19.65;12.20;;;7.20;99.90;;;;;;4993077;28;20143;-70
2024/01/30 04:22:53;;;;;;;18.20;12.20;;;7.20;99.90;;;;;;4993321;28;20077;-70
2024/01/30 04:25:19;;;;;;;21.95;12.48;;;7.20;99.90;;;;;;4993196;28;20494;-70
2024/01/30 04:27:44;;;;;;;16.42;12.38;;;7.20;99.90;;;;;;5007697;28;20054;-71
2024/01/30 04:30:10;;;;;;;19.20;12.55;;;7.20;99.90;;;;;;5008219;28;20038;-70
2024/01/30 04:32:37;;;;;;;18.67;12.85;;;7.20;99.90;;;;;;4992998;28;20483;-71
2024/01/30 04:35:03;;;;;;;23.48;12.45;;;7.20;99.90;;;;;;5004636;28;20711;-69
2024/01/30 04:37:29;;;;;;;18.63;11.80;;;7.30;99.90;;;;;;5012728;28;20849;-71
2024/01/30 04:39:55;;;;;;;21.45;12.93;;;7.20;99.90;;;;;;5012404;28;20050;-70
2024/01/30 04:42:20;;;;;;;23.88;12.93;;;7.30;99.90;;;;;;5012587;28;20137;-71
2024/01/30 04:44:46;;;;;;;19.02;12.10;;;7.30;99.90;;;;;;5012268;28;20458;-71
2024/01/30 04:47:12;;;;;;;19.83;11.70;;;7.30;99.90;;;;;;5012461;28;20041;-71
2024/01/30 04:49:41;;;;;;;20.02;12.77;;;7.30;99.90;;;;;;5010392;28;20045;-69
2024/01/30 04:52:08;;;;;;;19.75;12.38;;;7.30;99.90;;;;;;5012170;28;20052;-70
2024/01/30 04:54:34;;;;;;;21.13;12.57;;;7.30;99.90;;;;;;5012220;28;20038;-70
2024/01/30 04:57:00;;;;;;;21.67;13.23;;;7.30;99.90;;;;;;4999889;28;20092;-70
2024/01/30 04:59:26;;;;;;;22.52;12.70;;;7.30;99.90;;;;;;4992811;28;20046;-70
2024/01/30 05:01:52;;;;;;;23.05;12.95;;;7.30;99.90;;;;;;4992791;28;20046;-70
2024/01/30 05:04:18;;;;;;;18.25;12.25;;;7.40;99.90;;;;;;4992750;28;20038;-69
2024/01/30 05:06:43;;;;;;;21.50;12.60;;;7.30;99.90;;;;;;4992718;28;20676;-70
2024/01/30 05:09:09;;;;;;;22.05;13.80;;;7.30;99.90;;;;;;4992372;28;20046;-70
2024/01/30 05:11:39;;;;;;;20.65;12.70;;;7.30;99.90;;;;;;4992197;28;20105;-70
2024/01/30 05:14:05;;;;;;;20.67;12.95;;;7.30;99.90;;;;;;4992453;28;20398;-70
2024/01/30 05:16:31;;;;;;;23.63;13.15;;;7.30;99.90;;;;;;4992166;28;20038;-70
2024/01/30 05:18:58;;;;;;;22.73;12.93;;;7.40;99.90;;;;;;4992105;28;20041;-70
2024/01/30 05:21:24;;;;;;;19.60;12.15;;;7.40;99.90;;;;;;4992429;28;20054;-70
2024/01/30 05:23:49;;;;;;;21.15;14.15;;;7.40;99.90;;;;;;5007292;28;20521;-70
2024/01/30 05:26:15;;;;;;;19.55;12.35;;;7.40;99.90;;;;;;4992297;28;20042;-70
2024/01/30 05:28:41;;;;;;;17.40;13.02;;;7.40;99.90;;;;;;4991816;28;20053;-70
2024/01/30 05:31:07;;;;;;;20.95;13.35;;;7.40;99.90;;;;;;4991985;28;20043;-70
2024/01/30 05:33:32;;;;;;;21.02;12.45;;;7.40;99.90;;;;;;4992100;28;20034;-70
2024/01/30 05:35:58;;;;;;;23.73;13.73;;;7.40;99.90;;;;;;4992176;28;20125;-70
2024/01/30 05:38:24;;;;;;;22.90;13.48;;;7.40;99.90;;;;;;4990521;28;20057;-70
2024/01/30 05:40:49;;;;;;;18.20;12.45;;;7.50;99.90;;;;;;4992024;28;20159;-70
2024/01/30 05:43:15;;;;;;;22.85;13.70;;;7.40;99.90;;;;;;4992096;28;20050;-70
2024/01/30 05:45:41;;;;;;;22.75;13.15;;;7.40;99.90;;;;;;4991931;28;20112;-70
2024/01/30 05:48:06;;;;;;;23.80;12.93;;;7.40;99.90;;;;;;4991780;28;20041;-70
2024/01/30 05:50:32;;;;;;;17.63;12.05;;;7.40;99.90;;;;;;4992015;28;20176;-69
2024/01/30 05:52:58;;;;;;;24.45;13.75;;;7.40;99.90;;;;;;4991920;28;20086;-70
2024/01/30 05:55:24;;;;;;;19.42;12.30;;;7.40;99.90;;;;;;4991812;28;20159;-69
2024/01/30 05:57:50;;;;;;;21.75;12.75;;;7.40;99.90;;;;;;4991833;28;20442;-70
2024/01/30 06:00:16;;;;;;;20.85;13.48;;;7.40;99.90;;;;;;4991088;28;20172;-70
2024/01/30 06:02:42;;;;;;;20.58;13.20;;;7.30;99.90;;;;;;4991320;28;20054;-70
2024/01/30 06:05:08;;;;;;;21.65;12.60;;;7.30;99.90;;;;;;4991175;28;20137;-70
2024/01/30 06:07:34;;;;;;;20.20;12.60;;;7.30;99.90;;;;;;5023106;28;20056;-71
2024/01/30 06:10:01;;;;;;;20.65;12.30;;;7.30;99.90;;;;;;5030407;28;20073;-71
2024/01/30 06:12:28;;;;;;;21.88;13.65;;;7.30;99.90;;;;;;5029560;28;20060;-71
2024/01/30 06:14:56;;;;;;;19.88;12.35;;;7.40;99.90;;;;;;5030558;28;20068;-71
2024/01/30 06:17:22;;;;;;;20.05;13.15;;;7.40;99.90;;;;;;5030721;28;20125;-70
2024/01/30 06:19:48;;;;;;;19.90;13.00;;;7.30;99.90;;;;;;5030467;28;20049;-71
2024/01/30 06:22:14;;;;;;;23.00;13.38;;;7.40;99.90;;;;;;5030461;28;20091;-73
2024/01/30 06:24:39;;;;;;;21.63;12.48;;;7.30;99.90;;;;;;5030522;28;20080;-70
2024/01/30 06:27:05;;;;;;;20.27;12.30;;;7.30;99.90;;;;;;5030252;28;20042;-70
2024/01/30 06:29:31;;;;;;;20.38;12.57;;;7.40;99.90;;;;;;5030623;28;20067;-70
2024/01/30 06:31:57;;;;;;;25.05;13.75;;;7.30;99.90;;;;;;5030418;28;20449;-70
2024/01/30 06:34:22;;;;;;;23.90;13.68;;;7.30;99.90;;;;;;5030172;28;20375;-70
2024/01/30 06:36:48;;;;;;;18.05;12.55;;;7.30;99.90;;;;;;5030390;28;20045;-70
2024/01/30 06:39:14;;;;;;;24.50;13.38;;;7.40;99.90;;;;;;5030561;28;20072;-70
2024/01/30 06:41:39;;;;;;;18.52;12.65;;;7.30;99.90;;;;;;5030263;28;20049;-71
2024/01/30 06:44:07;;;;;;;17.17;11.48;;;7.40;99.90;;;;;;5029249;28;20045;-72
2024/01/30 06:46:34;;;;;;;18.90;11.85;;;7.30;99.90;;;;;;5030365;28;20060;-71
2024/01/30 06:48:59;;;;;;;20.52;12.13;;;7.40;99.90;;;;;;5030155;28;20394;-70
2024/01/30 06:51:25;;;;;;;20.73;12.82;;;7.40;99.90;;;;;;5030291;28;20049;-69
2024/01/30 06:53:51;;;;;;;19.15;12.75;;;7.40;99.90;;;;;;5030200;28;20451;-70
2024/01/30 06:56:20;;;;;;;22.08;12.63;;;7.40;99.90;;;;;;5045417;28;20091;-70
2024/01/30 06:58:47;;;;;;;19.52;12.20;;;7.40;99.90;;;;;;5030368;28;20060;-69
2024/01/30 07:01:14;;;;;;;24.10;13.00;;;7.40;99.90;;;;;;5030081;28;20052;-71
2024/01/30 07:03:39;;;;;;;20.08;13.02;;;7.40;99.90;;;;;;5030121;28;20049;-70
2024/01/30 07:06:05;;;;;;;19.00;12.48;;;7.40;99.90;;;;;;5030274;28;20083;-70
2024/01/30 07:08:31;;;;;;;18.15;12.65;;;7.40;99.90;;;;;;5030092;28;20037;-71
2024/01/30 07:10:56;;;;;;;23.10;13.07;;;7.40;99.90;;;;;;5029853;28;20059;-69
2024/01/30 07:13:22;;;;;;;21.67;12.75;;;7.40;99.90;;;;;;5032851;28;20053;-69
2024/01/30 07:15:48;;;;;;;18.88;12.75;;;7.40;99.90;;;;;;5029434;28;20132;-69
2024/01/30 07:18:13;;;;;;;21.95;12.57;;;7.40;99.90;;;;;;5013710;28;20053;-69
2024/01/30 07:20:47;;;;;;;19.38;12.40;;;7.50;99.90;;;;;;5028888;28;20493;-69
2024/01/30 07:23:15;;;;;;;18.98;12.18;;;7.50;99.90;;;;;;5013607;28;20049;-70
2024/01/30 07:25:41;;;;;;;23.30;12.88;;;7.50;99.90;;;;;;5012304;28;20181;-70
2024/01/30 07:28:09;;;;;;;18.83;12.95;;;7.50;99.90;;;;;;5013465;28;20424;-70
2024/01/30 07:30:35;;;;;;;23.80;12.75;;;7.50;99.90;;;;;;5013883;28;20042;-70
2024/01/30 07:33:01;;;;;;;18.17;12.68;;;7.50;99.90;;;;;;5013898;28;20041;-70
2024/01/30 07:35:26;;;;;;;20.40;12.52;;;7.40;99.90;;;;;;5013803;28;20116;-70
2024/01/30 07:37:52;;;;;;;17.30;12.07;;;7.50;99.90;;;;;;5012884;28;20121;-70
2024/01/30 07:40:18;;;;;;;21.10;12.15;;;7.50;99.90;;;;;;5014029;28;20053;-70
2024/01/30 07:42:44;;;;;;;22.85;12.95;;;7.50;99.90;;;;;;5013557;28;20466;-70
2024/01/30 07:45:09;;;;;;;20.50;11.63;;;7.50;99.90;;;;;;5012265;28;20046;-70
2024/01/30 07:47:35;;;;;;;19.92;12.77;;;7.60;99.90;;;;;;5014180;28;20104;-70
2024/01/30 07:50:01;;;;;;;19.95;11.68;;;7.50;99.90;;;;;;5014023;28;20085;-70
2024/01/30 07:52:27;;;;;;;19.10;11.75;;;7.60;99.90;;;;;;5012536;28;20050;-70
2024/01/30 07:54:53;;;;;;;17.13;11.90;;;7.60;99.90;;;;;;5013276;28;20466;-70
2024/01/30 07:57:18;;;;;;;18.15;11.65;;;7.60;99.90;;;;;;5013387;28;20141;-69
2024/01/30 07:59:45;;;;;;;18.58;11.30;;;7.60;99.90;;;;;;5013435;28;20042;-69
2024/01/30 08:02:13;;;;;;;20.48;12.15;;;7.60;99.90;;;;;;5012717;28;20056;-69
2024/01/30 08:04:39;;;;;;;18.55;11.63;;;7.60;99.90;;;;;;5012987;28;20054;-70
2024/01/30 08:07:04;;;;;;;16.83;11.02;;;7.60;99.90;;;;;;5013101;28;20056;-70
2024/01/30 08:09:30;;;;;;;20.45;12.05;;;7.60;99.90;;;;;;5013078;28;20037;-69
2024/01/30 08:11:56;;;;;;;20.38;11.57;;;7.70;99.90;;;;;;5012995;28;20038;-69
2024/01/30 08:14:22;;;;;;;17.95;12.10;;;7.60;99.90;;;;;;5013348;28;20037;-69
2024/01/30 08:16:47;;;;;;;22.48;11.38;;;7.70;99.90;;;;;;5012961;28;20096;-70
2024/01/30 08:19:14;;;;;;;21.40;12.48;;;7.70;99.90;;;;;;5013339;28;20077;-69
2024/01/30 08:21:40;;;;;;;20.98;13.20;;;7.70;99.90;;;;;;5009698;28;20394;-69
2024/01/30 08:24:06;;;;;;;23.58;14.00;;;7.70;99.90;;;;;;5011508;28;20038;-70
2024/01/30 08:26:32;;;;;;;17.50;12.43;;;7.70;99.90;;;;;;5012363;28;20034;-70
2024/01/30 08:28:58;;;;;;;19.52;12.77;;;7.80;99.90;;;;;;5012298;28;20129;-70
2024/01/30 08:31:24;;;;;;;21.23;12.60;;;7.70;99.90;;;;;;5011043;28;20121;-70
2024/01/30 08:33:50;;;;;;;18.17;11.93;;;7.80;99.90;;;;;;5012750;28;20029;-70
2024/01/30 08:36:16;;;;;;;20.42;11.32;;;7.80;99.90;;;;;;5012217;28;20471;-70
2024/01/30 08:38:42;;;;;;;18.40;11.77;;;7.80;99.90;;;;;;5012425;28;20113;-70
2024/01/30 08:41:08;;;;;;;19.65;12.00;;;7.80;99.90;;;;;;5011958;28;20659;-69
2024/01/30 08:43:34;;;;;;;17.45;11.30;;;7.80;99.90;;;;;;5007961;28;20042;-70
2024/01/30 08:46:00;;;;;;;21.55;11.38;;;7.90;99.90;;;;;;5006016;28;20044;-70
2024/01/30 08:48:26;;;;;;;20.52;11.43;;;7.90;99.90;;;;;;5009332;28;20408;-69
2024/01/30 08:50:52;;;;;;;18.38;11.68;;;7.90;99.90;;;;;;5011867;28;20029;-69
2024/01/30 08:53:18;;;;;;;17.98;10.88;;;7.90;99.90;;;;;;5012085;28;20121;-70
2024/01/30 08:55:44;;;;;;;18.58;11.57;;;8.00;99.90;;;;;;5010771;28;20100;-70
2024/01/30 08:58:10;;;;;;;16.15;11.43;;;8.00;99.90;;;;;;5011992;28;20453;-70
2024/01/30 09:00:35;;;;;;;16.65;11.73;;;8.00;99.90;;;;;;5003856;28;20073;-70
2024/01/30 09:03:01;;;;;;;15.20;10.57;;;8.00;99.90;;;;;;5015614;28;20042;-70
2024/01/30 09:05:27;;;;;;;18.70;11.35;;;8.10;99.90;;;;;;4992730;28;20125;-69
2024/01/30 09:07:52;;;;;;;23.25;11.10;;;8.10;99.90;;;;;;4999253;28;20045;-69
2024/01/30 09:10:18;;;;;;;19.75;10.30;;;8.10;99.90;;;;;;5011915;28;20108;-70
2024/01/30 09:12:44;;;;;;;16.65;10.20;;;8.10;99.90;;;;;;5012324;28;20346;-69
2024/01/30 09:15:10;;;;;;;16.70;10.23;;;8.20;99.90;;;;;;5012174;28;20037;-69
2024/01/30 09:17:36;;;;;;;15.35;10.65;;;8.20;99.90;;;;;;5009783;28;20038;-70
2024/01/30 09:20:01;;;;;;;19.40;11.15;;;8.20;99.90;;;;;;5011745;28;20030;-70
2024/01/30 09:22:27;;;;;;;15.48;10.35;;;8.20;99.90;;;;;;4996926;28;20046;-70
2024/01/30 09:24:53;;;;;;;19.98;11.73;;;8.20;99.90;;;;;;5011321;28;20034;-70
2024/01/30 09:27:18;;;;;;;18.70;12.07;;;8.20;99.90;;;;;;5010126;28;20092;-70
2024/01/30 09:29:44;;;;;;;17.08;10.55;;;8.30;99.90;;;;;;5011066;28;20394;-71
2024/01/30 09:32:10;;;;;;;15.93;9.77;;;8.30;99.90;;;;;;5011736;28;20045;-70
2024/01/30 09:34:35;;;;;;;16.50;11.13;;;8.30;99.90;;;;;;5011542;28;20038;-70
2024/01/30 09:37:02;;;;;;;20.70;11.45;;;8.40;99.90;;;;;;5026437;28;20040;-70
2024/01/30 09:39:28;;;;;;;18.13;11.15;;;8.50;99.90;;;;;;5011292;28;20489;-69
2024/01/30 09:42:06;;;;;;;16.48;10.80;;;8.60;99.90;;;;;;5011461;28;20042;-69
2024/01/30 09:44:34;;;;;;;19.95;10.85;;;8.60;99.90;;;;;;5011195;28;20112;-70
2024/01/30 09:47:03;;;;;;;14.07;10.07;;;8.60;99.90;;;;;;5011187;28;20502;-70
2024/01/30 09:49:32;;;;;;;16.48;10.30;;;8.70;99.90;;;;;;5011560;28;20073;-70
2024/01/30 09:51:57;;;;;;;16.27;10.05;;;8.70;99.90;;;;;;5030199;28;20095;-70
2024/01/30 09:54:23;;;;;;;19.75;10.98;;;8.70;99.90;;;;;;5030652;28;20045;-70
2024/01/30 09:56:49;;;;;;;17.55;10.38;;;8.70;99.90;;;;;;5046172;28;20049;-71
2024/01/30 09:59:15;;;;;;;17.15;10.25;;;8.80;99.90;;;;;;5030742;28;20821;-70
2024/01/30 10:01:44;;;;;;;16.15;9.77;;;8.80;99.90;;;;;;5004869;28;20113;-70
2024/01/30 10:04:10;;;;;;;17.52;10.90;;;8.80;99.90;;;;;;5009800;28;20101;-70
2024/01/30 10:06:37;;;;;;;16.35;10.20;;;8.80;99.90;;;;;;4997361;28;20045;-69
2024/01/30 10:09:02;;;;;;;19.55;10.77;;;8.90;99.90;;;;;;5009448;28;20073;-69
2024/01/30 10:11:28;;;;;;;13.35;9.23;;;9.00;99.90;;;;;;5010581;28;20093;-69
2024/01/30 10:13:54;;;;;;;15.75;10.65;;;9.00;99.90;;;;;;5010576;28;20084;-69
2024/01/30 10:16:20;;;;;;;17.23;10.02;;;9.10;99.90;;;;;;5010858;28;20053;-69
2024/01/30 10:18:45;;;;;;;15.35;9.07;;;9.10;99.90;;;;;;5010792;28;20041;-70
2024/01/30 10:21:12;;;;;;;17.70;11.30;;;9.10;99.90;;;;;;5009453;28;20046;-71
2024/01/30 10:23:38;;;;;;;17.15;10.45;;;9.30;99.90;;;;;;5014059;28;20685;-70
2024/01/30 10:26:04;;;;;;;18.92;10.18;;;9.30;99.90;;;;;;5009912;28;20152;-72
2024/01/30 10:28:30;;;;;;;17.17;10.77;;;9.30;99.90;;;;;;5009596;28;20044;-71
2024/01/30 10:31:05;;;;;;;14.35;9.50;;;9.30;99.90;;;;;;5010114;28;20116;-72
2024/01/30 10:33:31;;;;;;;15.38;10.13;;;9.30;99.90;;;;;;5010197;28;20045;-71
2024/01/30 10:36:01;;;;;;;18.13;9.77;;;9.40;99.90;;;;;;5009052;28;20120;-71
2024/01/30 10:38:29;;;;;;;15.68;9.90;;;9.50;99.90;;;;;;5009942;28;20053;-73
2024/01/30 10:41:00;;;;;;;19.08;9.70;;;9.50;99.90;;;;;;5009115;28;20099;-73
2024/01/30 10:43:34;;;;;;;19.48;9.60;;;9.50;99.90;;;;;;5010359;28;20045;-73
2024/01/30 10:46:15;;;;;;;17.85;10.50;;;9.60;99.90;;;;;;4990398;28;20419;-72
2024/01/30 10:48:50;;;;;;;20.73;10.63;;;9.60;99.90;;;;;;4999141;28;20046;-71
2024/01/30 10:51:18;;;;;;;15.73;9.95;;;9.60;99.90;;;;;;5025339;28;20441;-71
2024/01/30 10:53:46;;;;;;;17.13;10.07;;;9.60;99.90;;;;;;5025163;28;20401;-70
2024/01/30 10:56:13;;;;;;;18.35;10.02;;;9.70;99.90;;;;;;5009711;28;20104;-71
2024/01/30 10:58:39;;;;;;;16.92;10.00;;;9.70;99.90;;;;;;5009937;28;20409;-71
2024/01/30 11:01:07;;;;;;;19.00;10.23;;;9.70;99.90;;;;;;5008227;28;20041;-72
2024/01/30 11:03:36;;;;;;;13.32;9.93;;;9.70;99.90;;;;;;5001838;28;20034;-70
2024/01/30 11:06:03;;;;;;;16.98;9.27;;;9.70;99.90;;;;;;5009746;28;20038;-69
2024/01/30 11:08:31;;;;;;;14.18;9.38;;;9.70;99.90;;;;;;5005280;28;20053;-69
2024/01/30 11:10:58;;;;;;;19.23;9.98;;;9.80;99.90;;;;;;5009162;28;20058;-69
2024/01/30 11:13:31;;;;;;;18.15;9.85;;;9.90;99.90;;;;;;5008922;28;20113;-69
2024/01/30 11:16:03;;;;;;;;;;;9.80;99.90;;;;;;5009927;28;20088;-69
2024/01/30 11:18:30;;;;;;;17.80;9.83;;;9.80;99.90;;;;;;5006537;28;19921;-70
2024/01/30 11:20:57;;;;;;;16.30;9.82;;;9.80;99.90;;;;;;4999634;28;20381;-69
2024/01/30 11:23:25;;;;;;;17.00;9.38;;;9.90;99.90;;;;;;4999590;28;20046;-69
2024/01/30 11:25:53;;;;;;;18.30;9.55;;;9.90;99.90;;;;;;4998457;28;20030;-69
2024/01/30 11:28:21;;;;;;;20.73;12.00;;;9.90;99.90;;;;;;4999383;28;20509;-70
2024/01/30 11:30:50;;;;;;;22.92;10.07;;;9.90;99.90;;;;;;4998526;28;20035;-69
2024/01/30 11:33:28;;;;;;;17.33;9.55;;;10.00;99.90;;;;;;4999430;28;20413;-71
2024/01/30 11:35:54;;;;;;;18.38;9.98;;;10.00;99.90;;;;;;5007575;28;20427;-70
2024/01/30 11:38:19;;;;;;;18.70;10.30;;;9.90;99.90;;;;;;5009134;28;20128;-70
2024/01/30 11:40:45;;;;;;;19.80;9.80;;;9.90;99.90;;;;;;5008940;28;20084;-70
2024/01/30 11:43:12;;;;;;;18.77;10.27;;;9.90;99.90;;;;;;5009628;28;20052;-70
2024/01/30 11:45:39;;;;;;;16.65;10.43;;;9.90;99.90;;;;;;5009321;28;20045;-69
2024/01/30 11:48:05;;;;;;;17.60;10.60;;;10.00;99.90;;;;;;5009420;28;20461;-69
2024/01/30 11:50:35;;;;;;;16.02;10.23;;;10.00;99.90;;;;;;5009204;28;20033;-68
2024/01/30 11:53:01;;;;;;;14.02;9.90;;;10.00;99.90;;;;;;5009523;28;20050;-69
2024/01/30 11:55:28;;;;;;;16.52;10.40;;;10.00;99.90;;;;;;5008835;28;20116;-70
2024/01/30 11:57:58;;;;;;;14.38;9.75;;;10.00;99.90;;;;;;5009510;28;20052;-69
2024/01/30 12:00:24;;;;;;;14.27;10.02;;;10.00;99.90;;;;;;5012110;28;20510;-68
2024/01/30 12:02:51;;;;;;;18.88;10.25;;;10.00;99.90;;;;;;5013519;28;20048;-69
2024/01/30 12:05:20;;;;;;;22.52;10.93;;;9.90;99.90;;;;;;5012657;28;20065;-68
2024/01/30 12:07:46;;;;;;;21.08;11.05;;;10.00;99.90;;;;;;4995080;28;20053;-69
2024/01/30 12:10:17;;;;;;;17.80;10.98;;;10.00;99.90;;;;;;5012387;28;20426;-69
2024/01/30 12:12:55;;;;;;;20.05;11.00;;;10.00;99.90;;;;;;5013047;28;20608;-69
2024/01/30 12:15:22;;;;;;;16.60;10.98;;;10.10;99.90;;;;;;5012422;28;20137;-68
2024/01/30 12:17:48;;;;;;;16.90;10.10;;;10.10;99.90;;;;;;5012594;28;20052;-69
2024/01/30 12:20:17;;;;;;;13.40;10.30;;;10.10;99.90;;;;;;5012475;28;20054;-69
2024/01/30 12:22:44;;;;;;;17.33;10.88;;;10.10;99.90;;;;;;5009288;28;20065;-71
2024/01/30 12:25:28;;;;;;;17.42;10.48;;;10.10;99.90;;;;;;5009859;28;20124;-70
2024/01/30 12:27:54;;;;;;;18.80;11.57;;;10.10;99.90;;;;;;4994048;28;20582;-70
2024/01/30 12:30:20;;;;;;;16.42;10.05;;;10.20;99.90;;;;;;5010597;28;20042;-70
2024/01/30 12:32:49;;;;;;;18.90;10.93;;;10.20;99.90;;;;;;5004166;28;20508;-70
2024/01/30 12:35:16;;;;;;;15.15;10.43;;;10.20;99.90;;;;;;5010322;28;20117;-71